Time;durP1;ratioP1;P1;durP2;ratioP2;P2;SDS_P1;SDS_P2;PMS_P1;PMS_P2;Temp;Humidity;BMP_temperature;BMP_pressure;BME280_temperature;BME280_humidity;BME280_pressure;Samples;Min_cycle;Max_cycle;Signal;HPM_P1;HPM_P2
2024/01/23 00:01:33;;;;;;;5.82;1.17;;;6.60;99.90;;;;;;5023739;28;20033;-49
2024/01/23 00:04:00;;;;;;;10.15;1.75;;;6.60;99.90;;;;;;5030895;28;20083;-51
2024/01/23 00:06:26;;;;;;;6.60;1.52;;;6.60;99.90;;;;;;5038346;28;20492;-48
2024/01/23 00:08:53;;;;;;;3.88;1.20;;;6.60;99.90;;;;;;5032167;28;20029;-56
2024/01/23 00:11:19;;;;;;;10.75;1.55;;;6.50;99.90;;;;;;5027084;28;20159;-53
2024/01/23 00:13:49;;;;;;;8.60;1.23;;;6.50;99.90;;;;;;4988678;28;1225560;-49
2024/01/23 00:16:14;;;;;;;9.70;1.25;;;6.50;99.90;;;;;;5031433;28;20034;-53
2024/01/23 00:18:40;;;;;;;6.47;1.23;;;6.50;99.90;;;;;;5031395;28;20095;-54
2024/01/23 00:21:06;;;;;;;8.27;1.30;;;6.60;99.90;;;;;;5024058;28;20463;-52
2024/01/23 00:23:31;;;;;;;6.00;1.10;;;6.60;99.90;;;;;;5031576;28;20021;-47
2024/01/23 00:25:57;;;;;;;11.95;1.48;;;6.60;99.90;;;;;;5029683;28;20136;-51
2024/01/23 00:28:23;;;;;;;13.65;1.55;;;6.60;99.90;;;;;;5031624;28;20389;-52
2024/01/23 00:30:48;;;;;;;9.10;1.38;;;6.60;99.90;;;;;;5030848;28;20671;-53
2024/01/23 00:33:14;;;;;;;13.43;1.30;;;6.50;99.90;;;;;;5031250;28;20053;-49
2024/01/23 00:35:40;;;;;;;13.65;1.67;;;6.50;99.90;;;;;;5030471;28;20061;-48
2024/01/23 00:38:07;;;;;;;6.18;1.40;;;6.50;99.90;;;;;;5024896;28;20475;-55
2024/01/23 00:40:33;;;;;;;8.00;2.40;;;6.50;99.90;;;;;;5023336;28;20041;-52
2024/01/23 00:42:59;;;;;;;6.85;1.48;;;6.50;99.90;;;;;;5029090;28;20025;-51
2024/01/23 00:45:24;;;;;;;8.48;1.42;;;6.40;99.90;;;;;;5022197;28;20105;-54
2024/01/23 00:47:50;;;;;;;10.50;1.58;;;6.40;99.90;;;;;;5031213;28;20514;-53
2024/01/23 00:50:16;;;;;;;7.38;1.38;;;6.40;99.90;;;;;;5031031;28;20048;-49
2024/01/23 00:52:42;;;;;;;10.02;1.30;;;6.40;99.90;;;;;;5018463;28;20026;-49
2024/01/23 00:55:08;;;;;;;8.80;1.10;;;6.30;99.90;;;;;;5028159;28;20460;-51
2024/01/23 00:57:33;;;;;;;12.25;2.00;;;6.40;99.90;;;;;;5025765;28;20108;-48
2024/01/23 01:00:00;;;;;;;8.40;1.83;;;6.40;99.90;;;;;;5027709;28;20029;-50
2024/01/23 01:02:26;;;;;;;17.38;1.95;;;6.40;99.90;;;;;;5031016;28;20040;-50
2024/01/23 01:04:52;;;;;;;9.32;1.60;;;6.40;99.90;;;;;;5030834;28;20029;-50
2024/01/23 01:07:18;;;;;;;11.00;1.30;;;6.30;99.90;;;;;;5030536;28;20029;-49
2024/01/23 01:09:43;;;;;;;8.60;1.33;;;6.30;99.90;;;;;;5054044;28;20018;-50
2024/01/23 01:12:09;;;;;;;9.35;1.30;;;6.30;99.90;;;;;;5027805;28;20102;-51
2024/01/23 01:14:37;;;;;;;11.63;1.83;;;6.20;99.90;;;;;;5029063;28;20365;-47
2024/01/23 01:17:03;;;;;;;13.05;2.03;;;6.20;99.90;;;;;;5026626;28;20056;-48
2024/01/23 01:19:28;;;;;;;16.05;2.10;;;6.20;99.90;;;;;;5027150;28;20026;-52
2024/01/23 01:21:54;;;;;;;8.00;1.42;;;6.20;99.90;;;;;;5024880;28;20091;-48
2024/01/23 01:24:20;;;;;;;11.70;1.80;;;6.20;99.90;;;;;;5028659;28;20025;-54
2024/01/23 01:26:45;;;;;;;4.93;1.10;;;6.10;99.90;;;;;;5027140;28;20600;-52
2024/01/23 01:29:11;;;;;;;12.85;1.60;;;6.10;99.90;;;;;;5029151;28;20025;-50
2024/01/23 01:31:37;;;;;;;10.25;1.48;;;6.00;99.90;;;;;;5030221;28;20029;-51
2024/01/23 01:34:03;;;;;;;9.35;1.27;;;5.90;99.90;;;;;;5026050;28;20052;-50
2024/01/23 01:36:28;;;;;;;11.30;1.50;;;5.90;99.90;;;;;;5030274;28;20022;-51
2024/01/23 01:38:56;;;;;;;12.80;1.63;;;5.90;99.90;;;;;;5024824;28;20044;-48
2024/01/23 01:41:22;;;;;;;5.25;1.25;;;5.90;99.90;;;;;;5030410;28;20061;-49
2024/01/23 01:43:48;;;;;;;7.53;1.40;;;6.00;99.90;;;;;;5030263;28;20028;-50
2024/01/23 01:46:25;;;;;;;11.95;1.70;;;6.00;99.90;;;;;;5029592;28;20022;-53
2024/01/23 01:48:52;;;;;;;9.88;1.52;;;6.00;99.90;;;;;;5022115;28;20430;-51
2024/01/23 01:51:21;;;;;;;12.23;1.40;;;6.00;99.90;;;;;;5035597;28;20041;-48
2024/01/23 01:53:50;;;;;;;10.57;2.25;;;6.00;99.90;;;;;;5023737;28;20752;-54
2024/01/23 01:56:18;;;;;;;7.40;1.92;;;6.00;99.90;;;;;;5029892;28;20033;-48
2024/01/23 01:58:45;;;;;;;7.57;1.58;;;5.90;99.90;;;;;;5019486;28;20080;-51
2024/01/23 02:01:11;;;;;;;16.70;1.92;;;5.90;99.90;;;;;;5027209;28;20141;-54
2024/01/23 02:03:37;;;;;;;11.63;1.73;;;5.80;99.90;;;;;;5022282;28;20017;-47
2024/01/23 02:06:05;;;;;;;4.97;1.70;;;5.70;99.90;;;;;;5028313;28;20064;-51
2024/01/23 02:08:31;;;;;;;11.13;1.55;;;5.80;99.90;;;;;;5031734;28;20038;-52
2024/01/23 02:10:57;;;;;;;8.32;1.77;;;5.70;99.90;;;;;;5034107;28;20531;-53
2024/01/23 02:13:23;;;;;;;6.20;2.22;;;5.70;99.90;;;;;;5032306;28;20042;-51
2024/01/23 02:15:48;;;;;;;14.55;2.20;;;5.70;99.90;;;;;;5038651;28;20109;-53
2024/01/23 02:18:14;;;;;;;15.32;2.28;;;5.70;99.90;;;;;;5041898;28;20108;-53
2024/01/23 02:20:40;;;;;;;8.35;2.65;;;5.70;99.90;;;;;;5031631;28;20069;-50
2024/01/23 02:23:13;;;;;;;4.03;1.27;;;5.60;99.90;;;;;;5029994;28;20040;-51
2024/01/23 02:25:42;;;;;;;8.88;1.98;;;5.50;99.90;;;;;;5030691;28;20025;-49
2024/01/23 02:28:09;;;;;;;13.07;2.28;;;5.50;99.90;;;;;;5032199;28;20030;-50
2024/01/23 02:30:35;;;;;;;14.60;2.33;;;5.40;99.90;;;;;;5032882;28;20040;-56
2024/01/23 02:33:03;;;;;;;6.63;1.55;;;5.30;99.90;;;;;;5029679;28;20022;-48
2024/01/23 02:35:30;;;;;;;9.30;1.75;;;5.30;99.90;;;;;;5033630;28;20442;-51
2024/01/23 02:37:56;;;;;;;7.50;2.25;;;5.20;99.90;;;;;;5027164;28;20056;-50
2024/01/23 02:40:22;;;;;;;11.02;2.40;;;5.20;99.90;;;;;;5033477;28;20547;-52
2024/01/23 02:42:48;;;;;;;13.63;1.35;;;5.20;99.90;;;;;;5041286;28;20063;-53
2024/01/23 02:45:14;;;;;;;12.27;2.50;;;5.20;99.90;;;;;;5010847;28;20115;-55
2024/01/23 02:47:39;;;;;;;12.68;1.73;;;5.10;99.90;;;;;;5029346;28;20507;-50
2024/01/23 02:50:05;;;;;;;11.93;1.52;;;5.10;99.90;;;;;;5024638;28;20556;-57
2024/01/23 02:52:31;;;;;;;8.88;1.60;;;5.10;99.90;;;;;;5033189;28;20036;-48
2024/01/23 02:55:00;;;;;;;14.23;1.58;;;5.10;99.90;;;;;;5033316;28;20105;-56
2024/01/23 02:57:26;;;;;;;6.10;1.63;;;5.10;99.90;;;;;;5021686;28;20033;-51
2024/01/23 02:59:55;;;;;;;6.15;1.33;;;5.10;99.90;;;;;;5025267;28;20117;-53
2024/01/23 03:02:23;;;;;;;10.05;1.98;;;5.10;99.90;;;;;;5038986;28;20033;-49
2024/01/23 03:04:50;;;;;;;9.60;2.03;;;5.10;99.90;;;;;;5039327;28;20030;-53
2024/01/23 03:07:17;;;;;;;10.93;1.55;;;5.10;99.90;;;;;;5033204;28;20099;-50
2024/01/23 03:09:43;;;;;;;8.25;1.58;;;5.20;99.90;;;;;;5023651;28;20488;-49
2024/01/23 03:12:16;;;;;;;14.73;1.67;;;5.20;99.90;;;;;;5031845;28;20037;-56
2024/01/23 03:14:46;;;;;;;16.55;2.55;;;5.20;99.90;;;;;;5032646;28;20468;-56
2024/01/23 03:17:13;;;;;;;9.55;1.23;;;5.20;99.90;;;;;;5032731;28;20030;-48
2024/01/23 03:19:40;;;;;;;7.20;1.40;;;5.20;99.90;;;;;;5023987;28;20116;-53
2024/01/23 03:22:06;;;;;;;12.10;1.98;;;5.10;99.90;;;;;;5029926;28;20036;-49
2024/01/23 03:24:32;;;;;;;8.27;1.40;;;5.20;99.90;;;;;;5027387;28;20112;-49
2024/01/23 03:26:57;;;;;;;5.63;1.80;;;5.20;99.90;;;;;;5032355;28;20041;-48
2024/01/23 03:29:25;;;;;;;8.73;1.58;;;5.20;99.90;;;;;;5030734;28;20091;-52
2024/01/23 03:31:50;;;;;;;11.27;1.88;;;5.20;99.90;;;;;;5031516;28;20356;-53
2024/01/23 03:34:18;;;;;;;10.65;1.42;;;5.10;99.90;;;;;;5031460;28;20041;-51
2024/01/23 03:36:44;;;;;;;7.57;1.17;;;5.20;99.90;;;;;;5032459;28;20026;-48
2024/01/23 03:39:09;;;;;;;9.82;1.20;;;5.10;99.90;;;;;;5032042;28;20688;-53
2024/01/23 03:41:37;;;;;;;11.15;2.22;;;5.10;99.90;;;;;;5028967;28;20475;-52
2024/01/23 03:44:06;;;;;;;8.73;1.40;;;5.10;99.90;;;;;;5032064;28;20082;-55
2024/01/23 03:46:32;;;;;;;5.78;1.33;;;5.10;99.90;;;;;;5030277;28;20136;-53
2024/01/23 03:48:58;;;;;;;11.60;1.13;;;5.00;99.90;;;;;;5029855;28;20026;-48
2024/01/23 03:51:24;;;;;;;9.27;1.52;;;5.00;99.90;;;;;;5036744;28;20036;-52
2024/01/23 03:53:49;;;;;;;9.27;1.52;;;4.90;99.90;;;;;;5031837;28;20021;-53
2024/01/23 03:56:16;;;;;;;7.72;1.85;;;4.90;99.90;;;;;;5030269;28;20073;-54
2024/01/23 03:58:42;;;;;;;8.05;1.30;;;4.80;99.90;;;;;;5031789;28;20035;-51
2024/01/23 04:01:08;;;;;;;7.75;1.25;;;4.70;99.90;;;;;;5023280;28;20811;-48
2024/01/23 04:03:34;;;;;;;7.93;1.70;;;4.60;99.90;;;;;;5031333;28;20021;-48
2024/01/23 04:06:00;;;;;;;9.55;1.77;;;4.60;99.90;;;;;;5030290;28;20109;-49
2024/01/23 04:08:26;;;;;;;8.32;2.17;;;4.60;99.90;;;;;;5031636;28;20053;-48
2024/01/23 04:10:51;;;;;;;12.40;1.45;;;4.90;99.90;;;;;;5025915;28;20433;-48
2024/01/23 04:13:17;;;;;;;11.27;1.90;;;5.00;99.90;;;;;;5031881;28;20041;-48
2024/01/23 04:15:43;;;;;;;11.50;2.10;;;5.20;99.90;;;;;;5036249;28;20074;-47
2024/01/23 04:18:08;;;;;;;9.55;2.03;;;5.20;99.90;;;;;;5027731;28;20029;-51
2024/01/23 04:20:34;;;;;;;8.90;1.38;;;5.30;99.90;;;;;;5029804;28;20029;-52
2024/01/23 04:22:59;;;;;;;10.15;2.63;;;5.30;99.90;;;;;;5024426;28;20411;-52
2024/01/23 04:25:25;;;;;;;15.57;2.25;;;5.20;99.90;;;;;;5030765;28;20018;-50
2024/01/23 04:27:52;;;;;;;6.40;1.02;;;5.10;99.90;;;;;;5022271;28;20061;-52
2024/01/23 04:30:18;;;;;;;12.25;1.25;;;5.00;99.90;;;;;;5029617;28;20540;-53
2024/01/23 04:32:45;;;;;;;12.77;1.67;;;4.90;99.90;;;;;;5029053;28;20492;-48
2024/01/23 04:35:11;;;;;;;5.97;1.42;;;4.80;99.90;;;;;;5030918;28;20033;-51
2024/01/23 04:37:37;;;;;;;11.38;1.60;;;4.70;99.90;;;;;;5031228;28;20041;-50
2024/01/23 04:40:07;;;;;;;11.98;1.73;;;4.60;99.90;;;;;;5021246;28;20109;-52
2024/01/23 04:42:33;;;;;;;11.98;1.48;;;4.50;99.90;;;;;;5030380;28;20048;-51
2024/01/23 04:44:59;;;;;;;7.05;1.73;;;4.40;99.90;;;;;;5031146;28;20033;-49
2024/01/23 04:47:25;;;;;;;8.80;1.65;;;4.50;99.90;;;;;;5029593;28;20029;-54
2024/01/23 04:49:54;;;;;;;11.02;1.58;;;4.50;99.90;;;;;;5017830;28;20037;-56
2024/01/23 04:52:20;;;;;;;9.93;1.45;;;4.50;99.90;;;;;;5026136;28;20119;-53
2024/01/23 04:54:45;;;;;;;9.15;1.45;;;4.50;99.90;;;;;;5030723;28;20079;-52
2024/01/23 04:57:13;;;;;;;8.63;1.20;;;4.50;99.90;;;;;;5023058;28;20427;-50
2024/01/23 04:59:39;;;;;;;4.85;0.98;;;4.50;99.90;;;;;;5020114;28;20033;-55
2024/01/23 05:02:05;;;;;;;10.52;1.65;;;4.50;99.90;;;;;;5030368;28;20050;-52
2024/01/23 05:04:31;;;;;;;8.32;1.75;;;4.40;99.90;;;;;;5019441;28;20031;-54
2024/01/23 05:06:57;;;;;;;13.52;1.80;;;4.40;99.90;;;;;;5030665;28;20029;-51
2024/01/23 05:09:22;;;;;;;9.57;1.58;;;4.30;99.90;;;;;;5029145;28;20026;-53
2024/01/23 05:11:48;;;;;;;11.35;2.45;;;4.30;99.90;;;;;;5024655;28;20025;-52
2024/01/23 05:14:17;;;;;;;10.10;1.50;;;4.20;99.90;;;;;;5042276;28;20516;-51
2024/01/23 05:16:43;;;;;;;4.93;1.40;;;4.10;99.90;;;;;;5028520;28;20023;-53
2024/01/23 05:19:09;;;;;;;5.80;1.30;;;4.10;99.90;;;;;;5029022;28;20199;-53
2024/01/23 05:21:35;;;;;;;13.75;1.60;;;4.10;99.90;;;;;;5030045;28;20037;-49
2024/01/23 05:24:02;;;;;;;8.93;1.25;;;4.10;99.90;;;;;;5029121;28;20053;-48
2024/01/23 05:26:28;;;;;;;12.63;1.67;;;4.20;99.90;;;;;;5026350;28;20029;-47
2024/01/23 05:28:54;;;;;;;12.77;1.92;;;4.30;99.90;;;;;;5030105;28;20029;-47
2024/01/23 05:31:20;;;;;;;12.90;2.90;;;4.30;99.90;;;;;;5029237;28;20053;-48
2024/01/23 05:33:46;;;;;;;5.60;2.00;;;4.40;99.90;;;;;;5030337;28;20116;-48
2024/01/23 05:36:11;;;;;;;16.35;2.03;;;4.40;99.90;;;;;;5025156;28;20109;-47
2024/01/23 05:38:37;;;;;;;8.35;1.63;;;4.50;99.90;;;;;;5029546;28;20155;-47
2024/01/23 05:41:03;;;;;;;11.95;2.20;;;4.70;99.90;;;;;;5024847;28;20120;-47
2024/01/23 05:43:28;;;;;;;14.77;2.20;;;4.80;99.90;;;;;;5025121;28;20472;-47
2024/01/23 05:45:54;;;;;;;12.10;1.98;;;4.90;99.90;;;;;;5029197;28;20067;-47
2024/01/23 05:48:20;;;;;;;9.25;1.83;;;5.10;99.90;;;;;;5030052;28;20021;-46
2024/01/23 05:50:46;;;;;;;13.52;1.85;;;5.10;99.90;;;;;;5023991;28;20048;-49
2024/01/23 05:53:11;;;;;;;11.38;1.60;;;5.20;99.90;;;;;;5027039;28;20110;-50
2024/01/23 05:55:37;;;;;;;12.30;2.20;;;5.20;99.90;;;;;;5027948;28;20162;-47
2024/01/23 05:58:03;;;;;;;8.93;1.40;;;5.30;99.90;;;;;;5026512;28;20018;-49
2024/01/23 06:00:28;;;;;;;11.45;1.75;;;5.30;99.90;;;;;;5022962;28;20033;-48
2024/01/23 06:02:55;;;;;;;16.55;1.98;;;5.40;99.90;;;;;;5022270;28;20095;-50
2024/01/23 06:05:22;;;;;;;21.48;2.70;;;5.40;99.90;;;;;;5028018;28;20412;-50
2024/01/23 06:07:50;;;;;;;13.82;1.98;;;5.40;99.90;;;;;;5029072;28;20095;-50
2024/01/23 06:10:17;;;;;;;14.40;1.80;;;5.40;99.90;;;;;;5022260;28;20120;-51
2024/01/23 06:12:43;;;;;;;9.13;2.20;;;5.40;99.90;;;;;;5015738;28;20050;-47
2024/01/23 06:15:09;;;;;;;15.90;2.15;;;5.40;99.90;;;;;;5013086;28;20120;-48
2024/01/23 06:17:35;;;;;;;9.90;1.67;;;5.40;99.90;;;;;;5023024;28;20100;-54
2024/01/23 06:20:05;;;;;;;8.70;2.22;;;5.40;99.90;;;;;;5029544;28;20109;-54
2024/01/23 06:22:31;;;;;;;12.02;2.33;;;5.40;99.90;;;;;;5030091;28;20455;-48
2024/01/23 06:25:00;;;;;;;14.20;2.10;;;5.40;99.90;;;;;;5029644;28;20029;-51
2024/01/23 06:27:26;;;;;;;7.80;1.85;;;5.40;99.90;;;;;;5029824;28;20116;-51
2024/01/23 06:29:51;;;;;;;9.65;1.58;;;5.40;99.90;;;;;;5029504;28;20132;-49
2024/01/23 06:32:17;;;;;;;11.02;1.58;;;5.40;99.90;;;;;;5029711;28;20429;-50
2024/01/23 06:34:42;;;;;;;12.63;2.22;;;5.40;99.90;;;;;;5029665;28;20026;-52
2024/01/23 06:37:08;;;;;;;11.60;1.58;;;5.50;99.90;;;;;;5029731;28;20113;-52
2024/01/23 06:39:33;;;;;;;12.55;2.20;;;5.40;99.90;;;;;;5029554;28;20039;-50
2024/01/23 06:41:59;;;;;;;15.95;1.85;;;5.50;99.90;;;;;;5029107;28;20048;-48
2024/01/23 06:44:25;;;;;;;24.95;3.08;;;5.60;99.90;;;;;;5029552;28;20033;-54
2024/01/23 06:46:50;;;;;;;22.45;2.22;;;5.70;99.90;;;;;;5029252;28;20089;-51
2024/01/23 06:49:16;;;;;;;18.77;2.25;;;5.70;99.90;;;;;;5029381;28;20026;-53
2024/01/23 06:51:42;;;;;;;23.13;2.85;;;5.80;99.90;;;;;;5029225;28;20025;-52
2024/01/23 06:54:07;;;;;;;10.85;2.03;;;5.90;99.90;;;;;;5030305;28;20029;-50
2024/01/23 06:56:34;;;;;;;16.25;3.03;;;5.90;99.90;;;;;;5033230;28;20029;-47
2024/01/23 06:59:02;;;;;;;12.48;1.65;;;6.00;99.90;;;;;;5033180;28;20116;-50
2024/01/23 07:01:27;;;;;;;13.68;2.95;;;6.10;99.90;;;;;;5033287;28;20037;-48
2024/01/23 07:03:53;;;;;;;17.30;3.03;;;6.10;99.90;;;;;;5032970;28;20072;-50
2024/01/23 07:06:19;;;;;;;17.52;2.70;;;6.20;99.90;;;;;;5033248;28;20024;-48
2024/01/23 07:08:44;;;;;;;12.82;2.88;;;6.30;99.90;;;;;;5033337;28;20049;-47
2024/01/23 07:11:12;;;;;;;12.88;2.25;;;6.50;99.90;;;;;;5032725;28;20032;-51
2024/01/23 07:13:38;;;;;;;18.85;2.63;;;6.50;99.90;;;;;;5032681;28;20050;-51
2024/01/23 07:16:04;;;;;;;17.77;2.50;;;6.60;99.90;;;;;;5032805;28;20044;-51
2024/01/23 07:18:30;;;;;;;11.70;2.55;;;6.60;99.90;;;;;;5032825;28;20041;-50
2024/01/23 07:20:55;;;;;;;11.77;2.25;;;6.70;99.90;;;;;;5032884;28;20033;-52
2024/01/23 07:23:21;;;;;;;22.60;2.92;;;6.80;99.90;;;;;;5032425;28;20018;-47
2024/01/23 07:25:46;;;;;;;16.80;3.58;;;6.90;99.90;;;;;;5032755;28;20438;-51
2024/01/23 07:28:12;;;;;;;16.80;2.50;;;7.00;99.90;;;;;;5032545;28;20071;-50
2024/01/23 07:30:38;;;;;;;12.82;2.80;;;7.10;99.90;;;;;;5032635;28;20017;-48
2024/01/23 07:33:03;;;;;;;14.45;2.47;;;7.10;99.90;;;;;;5032548;28;20033;-51
2024/01/23 07:35:29;;;;;;;21.10;2.22;;;7.20;99.90;;;;;;5031267;28;20061;-48
2024/01/23 07:37:55;;;;;;;18.70;3.10;;;7.30;99.90;;;;;;5032899;28;20502;-51
2024/01/23 07:40:20;;;;;;;21.45;3.13;;;7.40;99.90;;;;;;5032448;28;20030;-48
2024/01/23 07:42:46;;;;;;;22.63;2.67;;;7.50;99.90;;;;;;5032865;28;20116;-51
2024/01/23 07:45:12;;;;;;;14.85;2.95;;;7.50;99.90;;;;;;5032644;28;20100;-53
2024/01/23 07:47:37;;;;;;;25.80;4.40;;;7.60;99.90;;;;;;5032559;28;20473;-53
2024/01/23 07:50:03;;;;;;;17.00;2.25;;;7.70;99.90;;;;;;5032549;28;20460;-51
2024/01/23 07:52:31;;;;;;;23.13;3.33;;;7.80;99.90;;;;;;5032851;28;20033;-52
2024/01/23 07:54:58;;;;;;;29.00;3.22;;;7.90;99.90;;;;;;5031431;28;20071;-52
2024/01/23 07:57:23;;;;;;;28.13;4.00;;;8.00;99.90;;;;;;5032297;28;20022;-49
2024/01/23 07:59:49;;;;;;;24.27;3.72;;;8.00;99.90;;;;;;5032443;28;20022;-54
2024/01/23 08:02:15;;;;;;;14.70;3.00;;;8.10;99.90;;;;;;5030352;28;20033;-48
2024/01/23 08:04:40;;;;;;;27.92;3.60;;;8.10;99.90;;;;;;5032224;28;20025;-52
2024/01/23 08:07:06;;;;;;;18.67;2.47;;;8.20;99.90;;;;;;5028203;28;20052;-50
2024/01/23 08:09:32;;;;;;;21.33;3.00;;;8.30;99.90;;;;;;5032256;28;20044;-48
2024/01/23 08:11:58;;;;;;;21.15;3.03;;;8.30;99.90;;;;;;5032029;28;20102;-47
2024/01/23 08:14:25;;;;;;;27.25;3.97;;;8.30;99.90;;;;;;5033764;28;20203;-47
2024/01/23 08:16:51;;;;;;;16.15;2.97;;;8.40;99.90;;;;;;5029713;28;20182;-50
2024/01/23 08:19:17;;;;;;;21.63;3.88;;;8.40;99.90;;;;;;5036005;28;20045;-49
2024/01/23 08:21:43;;;;;;;17.25;2.42;;;8.40;99.90;;;;;;5036976;28;20029;-49
2024/01/23 08:24:09;;;;;;;22.05;3.50;;;8.60;99.90;;;;;;5033329;28;20025;-48
2024/01/23 08:26:34;;;;;;;16.40;2.90;;;8.60;99.90;;;;;;5031793;28;20028;-48
2024/01/23 08:29:00;;;;;;;20.73;1.80;;;8.60;99.90;;;;;;5031604;28;20021;-53
2024/01/23 08:31:26;;;;;;;18.42;2.80;;;8.70;99.90;;;;;;5031581;28;20021;-54
2024/01/23 08:33:52;;;;;;;27.98;3.65;;;8.70;99.90;;;;;;5031612;28;20021;-51
2024/01/23 08:36:17;;;;;;;20.70;2.25;;;8.80;99.90;;;;;;5030367;28;20469;-49
2024/01/23 08:38:43;;;;;;;18.17;2.20;;;8.80;99.90;;;;;;5023418;28;20088;-52
2024/01/23 08:41:09;;;;;;;17.85;3.35;;;8.90;99.90;;;;;;5031516;28;20116;-50
2024/01/23 08:43:35;;;;;;;15.60;2.50;;;9.00;99.90;;;;;;5031534;28;20104;-53
2024/01/23 08:46:01;;;;;;;12.68;2.70;;;9.10;99.90;;;;;;5031875;28;20045;-51
2024/01/23 08:48:28;;;;;;;15.95;3.55;;;9.10;99.90;;;;;;5031531;28;20024;-48
2024/01/23 08:50:54;;;;;;;18.92;2.85;;;9.10;99.90;;;;;;5030237;28;20040;-56
2024/01/23 08:53:19;;;;;;;16.42;2.53;;;9.10;99.90;;;;;;5030626;28;20033;-51
2024/01/23 08:55:46;;;;;;;21.75;2.83;;;9.20;99.90;;;;;;5030501;28;20028;-50
2024/01/23 08:58:16;;;;;;;14.40;2.63;;;9.30;99.90;;;;;;5030000;28;20032;-52
2024/01/23 09:00:41;;;;;;;19.65;3.15;;;9.30;99.90;;;;;;5025483;28;20044;-50
2024/01/23 09:03:07;;;;;;;16.52;2.47;;;9.30;99.90;;;;;;5027196;28;20428;-51
2024/01/23 09:05:33;;;;;;;22.50;2.63;;;9.40;99.90;;;;;;5030707;28;20060;-58
2024/01/23 09:07:58;;;;;;;16.77;2.40;;;9.40;99.90;;;;;;5023660;28;20581;-49
2024/01/23 09:10:24;;;;;;;20.17;3.20;;;9.40;99.90;;;;;;5021678;28;20030;-55
2024/01/23 09:12:50;;;;;;;22.35;3.47;;;9.40;99.90;;;;;;5027960;28;20104;-52
2024/01/23 09:15:15;;;;;;;13.38;2.42;;;9.40;99.90;;;;;;5030970;28;20036;-54
2024/01/23 09:17:41;;;;;;;14.77;2.17;;;9.40;99.90;;;;;;5030599;28;20025;-52
2024/01/23 09:20:07;;;;;;;18.38;2.70;;;9.40;99.90;;;;;;5030798;28;20045;-49
2024/01/23 09:22:33;;;;;;;17.55;2.78;;;9.40;99.90;;;;;;5030595;28;20400;-52
2024/01/23 09:25:01;;;;;;;17.58;2.50;;;9.40;99.90;;;;;;5030894;28;20049;-51
2024/01/23 09:27:27;;;;;;;19.48;2.92;;;9.40;99.90;;;;;;5030830;28;20480;-51
2024/01/23 09:29:53;;;;;;;17.92;3.25;;;9.40;99.90;;;;;;5030646;28;20111;-49
2024/01/23 09:32:18;;;;;;;15.05;2.92;;;9.50;99.90;;;;;;5024231;28;20104;-48
2024/01/23 09:34:45;;;;;;;21.77;3.30;;;9.50;99.90;;;;;;5029111;28;20434;-49
2024/01/23 09:37:10;;;;;;;20.38;2.40;;;9.50;99.90;;;;;;5030658;28;20060;-49
2024/01/23 09:39:36;;;;;;;19.90;2.30;;;9.50;99.90;;;;;;5030733;28;20408;-49
2024/01/23 09:42:02;;;;;;;16.20;2.95;;;9.50;99.90;;;;;;5030542;28;20049;-50
2024/01/23 09:44:28;;;;;;;16.50;3.47;;;9.60;99.90;;;;;;5030752;28;20491;-48
2024/01/23 09:46:54;;;;;;;10.75;1.85;;;9.60;99.90;;;;;;5030619;28;20025;-48
2024/01/23 09:49:20;;;;;;;13.98;1.98;;;9.60;99.90;;;;;;5028737;28;20025;-51
2024/01/23 09:51:47;;;;;;;19.38;2.60;;;9.60;99.90;;;;;;5029173;28;20029;-51
2024/01/23 09:54:14;;;;;;;28.15;3.80;;;9.60;99.90;;;;;;5030031;28;20039;-47
2024/01/23 09:56:40;;;;;;;22.25;3.28;;;9.60;99.90;;;;;;5029347;28;20025;-48
2024/01/23 09:59:07;;;;;;;18.80;2.50;;;9.60;99.90;;;;;;5030569;28;20033;-51
2024/01/23 10:01:35;;;;;;;20.85;2.80;;;9.70;99.90;;;;;;5030470;28;20083;-54
2024/01/23 10:04:05;;;;;;;15.77;3.28;;;9.70;99.90;;;;;;5030377;28;20075;-51
2024/01/23 10:06:34;;;;;;;19.00;2.92;;;9.70;99.90;;;;;;5030177;28;20515;-51
2024/01/23 10:09:00;;;;;;;23.03;2.47;;;9.70;99.90;;;;;;5030158;28;20133;-51
2024/01/23 10:11:33;;;;;;;32.42;3.85;;;9.70;99.90;;;;;;5030230;28;20048;-52
2024/01/23 10:14:01;;;;;;;18.70;2.72;;;9.70;99.90;;;;;;5029777;28;20805;-50
2024/01/23 10:16:27;;;;;;;29.45;3.58;;;9.70;99.90;;;;;;5029995;28;20049;-54
2024/01/23 10:18:53;;;;;;;14.48;1.95;;;9.70;99.90;;;;;;5030315;28;20420;-54
2024/01/23 10:21:21;;;;;;;15.18;2.65;;;9.70;99.90;;;;;;5030107;28;20030;-53
2024/01/23 10:23:52;;;;;;;19.65;2.78;;;9.70;99.90;;;;;;5030185;28;20017;-55
2024/01/23 10:26:19;;;;;;;19.42;3.05;;;9.70;99.90;;;;;;5030252;28;20419;-48
2024/01/23 10:28:46;;;;;;;26.08;3.47;;;9.70;99.90;;;;;;5030708;28;20116;-50
2024/01/23 10:31:12;;;;;;;22.10;3.22;;;9.70;99.90;;;;;;5034160;28;20032;-53
2024/01/23 10:33:38;;;;;;;20.77;3.25;;;9.70;99.90;;;;;;5033906;28;20021;-50
2024/01/23 10:36:08;;;;;;;22.70;3.00;;;9.70;99.90;;;;;;5034104;28;20025;-46
2024/01/23 10:38:37;;;;;;;14.07;2.58;;;9.70;99.90;;;;;;5033876;28;20376;-53
2024/01/23 10:41:07;;;;;;;29.73;3.42;;;9.70;99.90;;;;;;5033957;28;20073;-57
2024/01/23 10:43:34;;;;;;;22.63;3.85;;;9.70;99.90;;;;;;5033902;28;20112;-48
2024/01/23 10:46:04;;;;;;;18.45;2.47;;;9.70;99.90;;;;;;5034027;28;20737;-47
2024/01/23 10:48:33;;;;;;;19.80;3.17;;;9.70;99.90;;;;;;5033926;28;20018;-52
2024/01/23 10:51:07;;;;;;;28.77;4.03;;;9.70;99.90;;;;;;5033859;28;20033;-54
2024/01/23 10:53:57;;;;;;;17.80;2.55;;;9.70;99.90;;;;;;5033727;28;20032;-51
2024/01/23 10:56:24;;;;;;;18.38;2.58;;;9.70;99.90;;;;;;5033931;28;20460;-51
2024/01/23 10:58:58;;;;;;;29.13;3.67;;;9.60;99.90;;;;;;5030914;28;20033;-50
2024/01/23 11:01:25;;;;;;;25.77;2.85;;;9.60;99.90;;;;;;5028067;28;20084;-53
2024/01/23 11:03:50;;;;;;;15.80;2.85;;;9.60;99.90;;;;;;5032273;28;20029;-47
2024/01/23 11:06:26;;;;;;;23.05;3.15;;;9.60;99.90;;;;;;5033792;28;20133;-51
2024/01/23 11:09:02;;;;;;;21.20;2.85;;;9.60;99.90;;;;;;5021285;28;20021;-50
2024/01/23 11:11:40;;;;;;;29.98;4.00;;;9.60;99.90;;;;;;5032061;28;20021;-48
2024/01/23 11:14:41;;;;;;;24.33;3.58;;;9.60;99.90;;;;;;5033623;28;20119;-47
2024/01/23 11:17:13;;;;;;;22.05;3.35;;;9.60;99.90;;;;;;5013935;28;20037;-45
2024/01/23 11:19:43;;;;;;;22.52;2.75;;;9.60;99.90;;;;;;5028926;28;20018;-47
2024/01/23 11:22:09;;;;;;;23.33;2.95;;;9.70;99.90;;;;;;5029003;28;20396;-48
2024/01/23 11:24:42;;;;;;;13.40;2.42;;;9.70;99.90;;;;;;5023587;28;20022;-52
2024/01/23 11:27:08;;;;;;;21.10;3.13;;;9.70;99.90;;;;;;5023604;28;20033;-53
2024/01/23 11:29:35;;;;;;;16.83;2.67;;;9.70;99.90;;;;;;5031169;28;20527;-52
2024/01/23 11:32:02;;;;;;;20.10;3.78;;;9.70;99.90;;;;;;5032747;28;20053;-54
2024/01/23 11:34:29;;;;;;;19.27;3.17;;;9.70;99.90;;;;;;5033015;28;20068;-52
2024/01/23 11:36:55;;;;;;;20.15;2.92;;;9.70;99.90;;;;;;5032623;28;20477;-56
2024/01/23 11:39:23;;;;;;;15.57;2.85;;;9.70;99.90;;;;;;5033177;28;20029;-50
2024/01/23 11:41:52;;;;;;;29.85;3.40;;;9.70;99.90;;;;;;5032842;28;20029;-52
2024/01/23 11:44:18;;;;;;;;;;;9.70;99.90;;;;;;5033350;28;20028;-49
2024/01/23 11:46:47;;;;;;;12.57;2.42;;;9.70;99.90;;;;;;5032677;28;19995;-52
2024/01/23 11:49:14;;;;;;;19.73;3.08;;;9.70;99.90;;;;;;5032863;28;20068;-52
2024/01/23 11:51:40;;;;;;;16.55;2.15;;;9.70;99.90;;;;;;5032573;28;20086;-51
2024/01/23 11:54:15;;;;;;;16.67;3.42;;;9.70;99.90;;;;;;5032676;28;20026;-56
2024/01/23 11:56:41;;;;;;;22.02;2.75;;;9.60;99.90;;;;;;5032317;28;20091;-53
2024/01/23 11:59:07;;;;;;;22.73;3.22;;;9.70;99.90;;;;;;5032273;28;20412;-49
2024/01/23 12:01:35;;;;;;;17.90;2.40;;;9.60;99.90;;;;;;5032454;28;20100;-49
2024/01/23 12:04:01;;;;;;;15.10;3.00;;;9.60;99.90;;;;;;5032348;28;20033;-50
2024/01/23 12:06:29;;;;;;;16.95;2.45;;;9.60;99.90;;;;;;5032741;28;20480;-44
2024/01/23 12:08:55;;;;;;;14.10;1.73;;;9.60;99.90;;;;;;5032076;28;20547;-53
2024/01/23 12:11:20;;;;;;;23.00;2.97;;;9.50;99.90;;;;;;5032227;28;20029;-47
2024/01/23 12:13:47;;;;;;;17.20;2.72;;;9.50;99.90;;;;;;5032085;28;20469;-49
2024/01/23 12:16:13;;;;;;;21.98;2.55;;;9.50;99.90;;;;;;5031833;28;20480;-49
2024/01/23 12:18:40;;;;;;;11.68;2.35;;;9.50;99.90;;;;;;5032288;28;20115;-46
2024/01/23 12:21:06;;;;;;;12.77;1.70;;;9.50;99.90;;;;;;5032115;28;20049;-48
2024/01/23 12:23:33;;;;;;;15.55;2.95;;;9.50;99.90;;;;;;5032044;28;20164;-49
2024/01/23 12:25:59;;;;;;;24.48;3.13;;;9.50;99.90;;;;;;5031952;28;20032;-49
2024/01/23 12:28:32;;;;;;;12.82;2.20;;;9.50;99.90;;;;;;5027565;28;20387;-50
2024/01/23 12:30:58;;;;;;;14.90;2.85;;;9.50;99.90;;;;;;5031432;28;20443;-47
2024/01/23 12:33:25;;;;;;;7.22;1.15;;;9.60;99.90;;;;;;5031963;28;20019;-51
2024/01/23 12:35:52;;;;;;;23.58;2.95;;;9.60;99.90;;;;;;5031402;28;20033;-51
2024/01/23 12:38:19;;;;;;;25.38;2.65;;;9.70;99.90;;;;;;5031624;28;20060;-52
2024/01/23 12:40:46;;;;;;;21.15;3.00;;;9.70;99.90;;;;;;5029123;28;20028;-51
2024/01/23 12:43:12;;;;;;;20.38;2.72;;;9.70;99.90;;;;;;5025582;28;20033;-49
2024/01/23 12:45:38;;;;;;;15.65;2.50;;;9.70;99.90;;;;;;5031551;28;20021;-51
2024/01/23 12:48:06;;;;;;;14.65;2.50;;;9.70;99.90;;;;;;5031655;28;20079;-51